sensor_id;sensor_type;location;lat;lon;timestamp;P1;durP1;ratioP1;P2;durP2;ratioP2
11646;SDS011;5880;52.342;9.662;2023-03-04T00:01:59;8.30;;;2.93;;
11646;SDS011;5880;52.342;9.662;2023-03-04T00:04:25;7.33;;;2.30;;
11646;SDS011;5880;52.342;9.662;2023-03-04T00:06:50;11.63;;;2.80;;
11646;SDS011;5880;52.342;9.662;2023-03-04T00:09:16;6.03;;;2.47;;
11646;SDS011;5880;52.342;9.662;2023-03-04T00:11:41;7.03;;;3.27;;
11646;SDS011;5880;52.342;9.662;2023-03-04T00:14:07;10.57;;;2.83;;
11646;SDS011;5880;52.342;9.662;2023-03-04T00:16:33;8.67;;;2.57;;
11646;SDS011;5880;52.342;9.662;2023-03-04T00:18:58;8.70;;;3.07;;
11646;SDS011;5880;52.342;9.662;2023-03-04T00:21:24;6.53;;;2.43;;
11646;SDS011;5880;52.342;9.662;2023-03-04T00:23:50;9.70;;;2.57;;
11646;SDS011;5880;52.342;9.662;2023-03-04T00:26:16;7.40;;;2.33;;
11646;SDS011;5880;52.342;9.662;2023-03-04T00:28:42;9.40;;;2.80;;
11646;SDS011;5880;52.342;9.662;2023-03-04T00:31:08;9.67;;;2.70;;
11646;SDS011;5880;52.342;9.662;2023-03-04T00:33:35;8.73;;;2.63;;
11646;SDS011;5880;52.342;9.662;2023-03-04T00:36:00;9.83;;;2.70;;
11646;SDS011;5880;52.342;9.662;2023-03-04T00:38:27;5.77;;;2.57;;
11646;SDS011;5880;52.342;9.662;2023-03-04T00:40:53;8.43;;;2.87;;
11646;SDS011;5880;52.342;9.662;2023-03-04T00:43:19;10.13;;;2.77;;
11646;SDS011;5880;52.342;9.662;2023-03-04T00:45:45;9.50;;;2.60;;
11646;SDS011;5880;52.342;9.662;2023-03-04T00:48:11;9.23;;;3.30;;
11646;SDS011;5880;52.342;9.662;2023-03-04T00:50:37;9.73;;;2.90;;
11646;SDS011;5880;52.342;9.662;2023-03-04T00:53:02;6.83;;;2.87;;
11646;SDS011;5880;52.342;9.662;2023-03-04T00:55:29;8.83;;;3.03;;
11646;SDS011;5880;52.342;9.662;2023-03-04T00:57:55;8.83;;;3.03;;
11646;SDS011;5880;52.342;9.662;2023-03-04T01:00:21;6.37;;;2.73;;
11646;SDS011;5880;52.342;9.662;2023-03-04T01:02:46;6.83;;;2.73;;
11646;SDS011;5880;52.342;9.662;2023-03-04T01:05:12;9.90;;;2.77;;
11646;SDS011;5880;52.342;9.662;2023-03-04T01:07:39;7.70;;;2.77;;
11646;SDS011;5880;52.342;9.662;2023-03-04T01:10:06;6.57;;;2.53;;
11646;SDS011;5880;52.342;9.662;2023-03-04T01:12:33;8.70;;;2.47;;
11646;SDS011;5880;52.342;9.662;2023-03-04T01:14:59;6.80;;;2.37;;
11646;SDS011;5880;52.342;9.662;2023-03-04T01:17:25;7.03;;;2.40;;
11646;SDS011;5880;52.342;9.662;2023-03-04T01:19:50;8.30;;;2.37;;
11646;SDS011;5880;52.342;9.662;2023-03-04T01:22:16;8.50;;;2.77;;
11646;SDS011;5880;52.342;9.662;2023-03-04T01:24:43;7.43;;;2.60;;
11646;SDS011;5880;52.342;9.662;2023-03-04T01:27:09;9.97;;;3.27;;
11646;SDS011;5880;52.342;9.662;2023-03-04T01:29:35;8.07;;;2.80;;
11646;SDS011;5880;52.342;9.662;2023-03-04T01:32:01;8.43;;;2.50;;
11646;SDS011;5880;52.342;9.662;2023-03-04T01:34:27;7.80;;;2.40;;
11646;SDS011;5880;52.342;9.662;2023-03-04T01:36:52;7.10;;;2.47;;
11646;SDS011;5880;52.342;9.662;2023-03-04T01:39:18;7.97;;;2.60;;
11646;SDS011;5880;52.342;9.662;2023-03-04T01:41:43;8.10;;;2.23;;
11646;SDS011;5880;52.342;9.662;2023-03-04T01:44:09;8.40;;;2.90;;
11646;SDS011;5880;52.342;9.662;2023-03-04T01:46:36;9.43;;;3.03;;
11646;SDS011;5880;52.342;9.662;2023-03-04T01:49:05;6.63;;;2.20;;
11646;SDS011;5880;52.342;9.662;2023-03-04T01:51:31;5.60;;;2.40;;
11646;SDS011;5880;52.342;9.662;2023-03-04T01:53:56;7.60;;;2.23;;
11646;SDS011;5880;52.342;9.662;2023-03-04T01:56:29;8.43;;;2.10;;
11646;SDS011;5880;52.342;9.662;2023-03-04T02:01:49;8.63;;;2.37;;
11646;SDS011;5880;52.342;9.662;2023-03-04T02:04:21;7.37;;;2.30;;
11646;SDS011;5880;52.342;9.662;2023-03-04T02:06:52;6.07;;;2.10;;
11646;SDS011;5880;52.342;9.662;2023-03-04T02:09:20;7.70;;;2.00;;
11646;SDS011;5880;52.342;9.662;2023-03-04T02:11:46;6.93;;;2.20;;
11646;SDS011;5880;52.342;9.662;2023-03-04T02:14:14;5.83;;;1.93;;
11646;SDS011;5880;52.342;9.662;2023-03-04T02:16:41;7.50;;;2.00;;
11646;SDS011;5880;52.342;9.662;2023-03-04T02:19:51;7.63;;;1.70;;
11646;SDS011;5880;52.342;9.662;2023-03-04T02:22:05;6.53;;;1.67;;
11646;SDS011;5880;52.342;9.662;2023-03-04T02:24:37;5.00;;;1.70;;
11646;SDS011;5880;52.342;9.662;2023-03-04T02:27:07;6.73;;;1.83;;
11646;SDS011;5880;52.342;9.662;2023-03-04T02:29:33;9.83;;;2.00;;
11646;SDS011;5880;52.342;9.662;2023-03-04T02:31:58;5.27;;;1.37;;
11646;SDS011;5880;52.342;9.662;2023-03-04T02:34:27;7.43;;;2.20;;
11646;SDS011;5880;52.342;9.662;2023-03-04T02:36:57;9.33;;;1.73;;
11646;SDS011;5880;52.342;9.662;2023-03-04T02:39:27;9.60;;;1.83;;
11646;SDS011;5880;52.342;9.662;2023-03-04T02:41:59;4.40;;;1.50;;
11646;SDS011;5880;52.342;9.662;2023-03-04T02:44:32;3.50;;;1.53;;
11646;SDS011;5880;52.342;9.662;2023-03-04T02:47:00;4.23;;;1.73;;
11646;SDS011;5880;52.342;9.662;2023-03-04T02:49:30;5.63;;;1.40;;
11646;SDS011;5880;52.342;9.662;2023-03-04T02:52:07;7.37;;;1.80;;
11646;SDS011;5880;52.342;9.662;2023-03-04T02:54:38;3.73;;;1.50;;
11646;SDS011;5880;52.342;9.662;2023-03-04T02:57:06;5.50;;;1.60;;
11646;SDS011;5880;52.342;9.662;2023-03-04T02:59:34;3.77;;;1.37;;
11646;SDS011;5880;52.342;9.662;2023-03-04T03:02:02;4.10;;;1.40;;
11646;SDS011;5880;52.342;9.662;2023-03-04T03:04:28;7.03;;;2.00;;
11646;SDS011;5880;52.342;9.662;2023-03-04T03:06:54;6.17;;;1.50;;
11646;SDS011;5880;52.342;9.662;2023-03-04T03:09:20;5.93;;;1.63;;
11646;SDS011;5880;52.342;9.662;2023-03-04T03:11:46;4.03;;;1.50;;
11646;SDS011;5880;52.342;9.662;2023-03-04T03:14:12;6.73;;;1.50;;
11646;SDS011;5880;52.342;9.662;2023-03-04T03:16:37;3.37;;;1.40;;
11646;SDS011;5880;52.342;9.662;2023-03-04T03:19:03;7.20;;;2.00;;
11646;SDS011;5880;52.342;9.662;2023-03-04T03:21:29;3.47;;;1.60;;
11646;SDS011;5880;52.342;9.662;2023-03-04T03:23:55;3.67;;;1.30;;
11646;SDS011;5880;52.342;9.662;2023-03-04T03:26:20;4.43;;;1.40;;
11646;SDS011;5880;52.342;9.662;2023-03-04T03:28:47;3.40;;;1.30;;
11646;SDS011;5880;52.342;9.662;2023-03-04T03:31:13;4.60;;;1.10;;
11646;SDS011;5880;52.342;9.662;2023-03-04T03:33:39;4.40;;;1.20;;
11646;SDS011;5880;52.342;9.662;2023-03-04T03:36:05;6.10;;;1.50;;
11646;SDS011;5880;52.342;9.662;2023-03-04T03:38:32;4.37;;;1.30;;
11646;SDS011;5880;52.342;9.662;2023-03-04T03:40:58;5.87;;;1.53;;
11646;SDS011;5880;52.342;9.662;2023-03-04T03:43:23;4.10;;;1.17;;
11646;SDS011;5880;52.342;9.662;2023-03-04T03:45:49;5.37;;;1.37;;
11646;SDS011;5880;52.342;9.662;2023-03-04T03:48:15;3.83;;;1.60;;
11646;SDS011;5880;52.342;9.662;2023-03-04T03:50:42;3.37;;;1.07;;
11646;SDS011;5880;52.342;9.662;2023-03-04T03:53:08;6.40;;;1.30;;
11646;SDS011;5880;52.342;9.662;2023-03-04T03:55:33;3.97;;;1.20;;
11646;SDS011;5880;52.342;9.662;2023-03-04T03:57:59;4.10;;;1.10;;
11646;SDS011;5880;52.342;9.662;2023-03-04T04:00:25;2.67;;;1.00;;
11646;SDS011;5880;52.342;9.662;2023-03-04T04:02:51;6.33;;;1.40;;
11646;SDS011;5880;52.342;9.662;2023-03-04T04:05:23;5.27;;;1.27;;
11646;SDS011;5880;52.342;9.662;2023-03-04T04:07:49;5.43;;;1.30;;
11646;SDS011;5880;52.342;9.662;2023-03-04T04:10:15;4.37;;;1.30;;
11646;SDS011;5880;52.342;9.662;2023-03-04T04:12:40;3.87;;;1.40;;
11646;SDS011;5880;52.342;9.662;2023-03-04T04:15:06;3.67;;;1.30;;
11646;SDS011;5880;52.342;9.662;2023-03-04T04:17:35;5.40;;;1.57;;
11646;SDS011;5880;52.342;9.662;2023-03-04T04:20:01;5.80;;;1.50;;
11646;SDS011;5880;52.342;9.662;2023-03-04T04:22:27;5.07;;;1.27;;
11646;SDS011;5880;52.342;9.662;2023-03-04T04:24:53;6.87;;;1.93;;
11646;SDS011;5880;52.342;9.662;2023-03-04T04:27:18;4.47;;;1.30;;
11646;SDS011;5880;52.342;9.662;2023-03-04T04:29:44;6.10;;;1.40;;
11646;SDS011;5880;52.342;9.662;2023-03-04T04:32:09;7.47;;;1.67;;
11646;SDS011;5880;52.342;9.662;2023-03-04T04:34:38;5.27;;;1.30;;
11646;SDS011;5880;52.342;9.662;2023-03-04T04:37:04;4.47;;;1.30;;
11646;SDS011;5880;52.342;9.662;2023-03-04T04:39:29;4.27;;;1.20;;
11646;SDS011;5880;52.342;9.662;2023-03-04T04:41:55;2.83;;;1.37;;
11646;SDS011;5880;52.342;9.662;2023-03-04T04:44:21;3.50;;;1.10;;
11646;SDS011;5880;52.342;9.662;2023-03-04T04:46:46;2.43;;;1.30;;
11646;SDS011;5880;52.342;9.662;2023-03-04T04:49:12;4.70;;;1.70;;
11646;SDS011;5880;52.342;9.662;2023-03-04T04:51:38;6.13;;;1.60;;
11646;SDS011;5880;52.342;9.662;2023-03-04T04:54:04;6.03;;;1.67;;
11646;SDS011;5880;52.342;9.662;2023-03-04T04:56:31;5.03;;;1.57;;
11646;SDS011;5880;52.342;9.662;2023-03-04T04:58:58;4.47;;;1.50;;
11646;SDS011;5880;52.342;9.662;2023-03-04T05:01:27;4.87;;;1.50;;
11646;SDS011;5880;52.342;9.662;2023-03-04T05:03:53;3.53;;;1.30;;
11646;SDS011;5880;52.342;9.662;2023-03-04T05:06:19;3.73;;;1.53;;
11646;SDS011;5880;52.342;9.662;2023-03-04T05:08:48;4.27;;;1.50;;
11646;SDS011;5880;52.342;9.662;2023-03-04T05:11:15;4.30;;;1.53;;
11646;SDS011;5880;52.342;9.662;2023-03-04T05:13:43;5.77;;;1.50;;
11646;SDS011;5880;52.342;9.662;2023-03-04T05:16:09;4.47;;;1.50;;
11646;SDS011;5880;52.342;9.662;2023-03-04T05:18:35;4.90;;;1.73;;
11646;SDS011;5880;52.342;9.662;2023-03-04T05:21:02;4.83;;;1.60;;
11646;SDS011;5880;52.342;9.662;2023-03-04T05:23:29;4.20;;;1.30;;
11646;SDS011;5880;52.342;9.662;2023-03-04T05:25:59;4.27;;;1.33;;
11646;SDS011;5880;52.342;9.662;2023-03-04T05:28:26;3.50;;;1.40;;
11646;SDS011;5880;52.342;9.662;2023-03-04T05:30:51;4.60;;;1.40;;
11646;SDS011;5880;52.342;9.662;2023-03-04T05:33:18;4.00;;;1.40;;
11646;SDS011;5880;52.342;9.662;2023-03-04T05:35:45;5.07;;;1.30;;
11646;SDS011;5880;52.342;9.662;2023-03-04T05:38:13;4.73;;;1.30;;
11646;SDS011;5880;52.342;9.662;2023-03-04T05:40:41;3.63;;;1.50;;
11646;SDS011;5880;52.342;9.662;2023-03-04T05:43:08;3.60;;;1.13;;
11646;SDS011;5880;52.342;9.662;2023-03-04T05:45:35;4.33;;;1.57;;
11646;SDS011;5880;52.342;9.662;2023-03-04T05:48:01;3.53;;;1.47;;
11646;SDS011;5880;52.342;9.662;2023-03-04T05:50:28;5.53;;;1.40;;
11646;SDS011;5880;52.342;9.662;2023-03-04T05:52:55;3.20;;;0.90;;
11646;SDS011;5880;52.342;9.662;2023-03-04T05:55:21;5.73;;;1.37;;
11646;SDS011;5880;52.342;9.662;2023-03-04T05:57:46;5.10;;;1.47;;
11646;SDS011;5880;52.342;9.662;2023-03-04T06:00:13;4.87;;;1.27;;
11646;SDS011;5880;52.342;9.662;2023-03-04T06:02:39;2.80;;;1.10;;
11646;SDS011;5880;52.342;9.662;2023-03-04T06:05:08;5.67;;;1.40;;
11646;SDS011;5880;52.342;9.662;2023-03-04T06:07:37;4.97;;;1.37;;
11646;SDS011;5880;52.342;9.662;2023-03-04T06:10:03;4.67;;;1.50;;
11646;SDS011;5880;52.342;9.662;2023-03-04T06:12:30;4.10;;;1.30;;
11646;SDS011;5880;52.342;9.662;2023-03-04T06:14:56;2.43;;;1.10;;
11646;SDS011;5880;52.342;9.662;2023-03-04T06:17:22;3.37;;;1.20;;
11646;SDS011;5880;52.342;9.662;2023-03-04T06:19:47;5.87;;;1.50;;
11646;SDS011;5880;52.342;9.662;2023-03-04T06:22:13;4.40;;;1.40;;
11646;SDS011;5880;52.342;9.662;2023-03-04T06:24:39;5.63;;;1.37;;
11646;SDS011;5880;52.342;9.662;2023-03-04T06:27:04;4.73;;;1.30;;
11646;SDS011;5880;52.342;9.662;2023-03-04T06:29:31;3.90;;;1.00;;
11646;SDS011;5880;52.342;9.662;2023-03-04T06:31:57;5.17;;;1.30;;
11646;SDS011;5880;52.342;9.662;2023-03-04T06:34:22;3.80;;;1.80;;
11646;SDS011;5880;52.342;9.662;2023-03-04T06:36:48;2.63;;;1.00;;
11646;SDS011;5880;52.342;9.662;2023-03-04T06:39:14;3.57;;;1.20;;
11646;SDS011;5880;52.342;9.662;2023-03-04T06:41:40;3.50;;;1.30;;
11646;SDS011;5880;52.342;9.662;2023-03-04T06:44:06;6.07;;;1.70;;
11646;SDS011;5880;52.342;9.662;2023-03-04T06:46:32;3.93;;;1.30;;
11646;SDS011;5880;52.342;9.662;2023-03-04T06:48:59;4.70;;;1.60;;
11646;SDS011;5880;52.342;9.662;2023-03-04T06:51:24;3.00;;;1.33;;
11646;SDS011;5880;52.342;9.662;2023-03-04T06:53:50;6.03;;;2.13;;
11646;SDS011;5880;52.342;9.662;2023-03-04T06:56:16;3.60;;;1.57;;
11646;SDS011;5880;52.342;9.662;2023-03-04T06:58:42;5.10;;;1.47;;
11646;SDS011;5880;52.342;9.662;2023-03-04T07:01:15;4.53;;;1.33;;
11646;SDS011;5880;52.342;9.662;2023-03-04T07:03:50;3.20;;;1.20;;
11646;SDS011;5880;52.342;9.662;2023-03-04T07:06:18;6.17;;;3.40;;
11646;SDS011;5880;52.342;9.662;2023-03-04T07:08:46;3.40;;;1.90;;
11646;SDS011;5880;52.342;9.662;2023-03-04T07:11:12;5.77;;;2.10;;
11646;SDS011;5880;52.342;9.662;2023-03-04T07:13:39;8.07;;;1.80;;
11646;SDS011;5880;52.342;9.662;2023-03-04T07:16:09;2.83;;;1.37;;
11646;SDS011;5880;52.342;9.662;2023-03-04T07:18:38;2.43;;;1.30;;
11646;SDS011;5880;52.342;9.662;2023-03-04T07:21:05;4.30;;;1.70;;
11646;SDS011;5880;52.342;9.662;2023-03-04T07:23:31;4.67;;;1.73;;
11646;SDS011;5880;52.342;9.662;2023-03-04T07:25:58;5.53;;;1.70;;
11646;SDS011;5880;52.342;9.662;2023-03-04T07:28:23;5.17;;;2.00;;
11646;SDS011;5880;52.342;9.662;2023-03-04T07:30:49;6.70;;;1.50;;
11646;SDS011;5880;52.342;9.662;2023-03-04T07:33:15;1.77;;;1.30;;
11646;SDS011;5880;52.342;9.662;2023-03-04T07:35:40;4.40;;;1.53;;
11646;SDS011;5880;52.342;9.662;2023-03-04T07:38:06;3.43;;;1.57;;
11646;SDS011;5880;52.342;9.662;2023-03-04T07:40:32;4.70;;;1.30;;
11646;SDS011;5880;52.342;9.662;2023-03-04T07:42:58;4.03;;;1.40;;
11646;SDS011;5880;52.342;9.662;2023-03-04T07:45:24;4.33;;;1.70;;
11646;SDS011;5880;52.342;9.662;2023-03-04T07:47:50;2.63;;;1.33;;
11646;SDS011;5880;52.342;9.662;2023-03-04T07:50:16;2.83;;;1.20;;
11646;SDS011;5880;52.342;9.662;2023-03-04T07:52:44;2.90;;;1.60;;
11646;SDS011;5880;52.342;9.662;2023-03-04T07:55:12;3.53;;;1.67;;
11646;SDS011;5880;52.342;9.662;2023-03-04T07:57:40;6.00;;;1.80;;
11646;SDS011;5880;52.342;9.662;2023-03-04T08:00:08;3.40;;;1.60;;
11646;SDS011;5880;52.342;9.662;2023-03-04T08:02:37;3.53;;;1.33;;
11646;SDS011;5880;52.342;9.662;2023-03-04T08:05:04;2.67;;;1.47;;
11646;SDS011;5880;52.342;9.662;2023-03-04T08:07:30;3.83;;;1.20;;
11646;SDS011;5880;52.342;9.662;2023-03-04T08:09:56;4.40;;;1.50;;
11646;SDS011;5880;52.342;9.662;2023-03-04T08:12:21;3.50;;;1.60;;
11646;SDS011;5880;52.342;9.662;2023-03-04T08:14:50;1.87;;;1.27;;
11646;SDS011;5880;52.342;9.662;2023-03-04T08:17:16;3.53;;;1.23;;
11646;SDS011;5880;52.342;9.662;2023-03-04T08:19:42;2.47;;;1.40;;
11646;SDS011;5880;52.342;9.662;2023-03-04T08:22:08;3.10;;;1.30;;
11646;SDS011;5880;52.342;9.662;2023-03-04T08:24:34;3.37;;;1.30;;
11646;SDS011;5880;52.342;9.662;2023-03-04T08:27:00;4.73;;;1.53;;
11646;SDS011;5880;52.342;9.662;2023-03-04T08:29:26;3.10;;;1.30;;
11646;SDS011;5880;52.342;9.662;2023-03-04T08:31:52;2.67;;;1.33;;
11646;SDS011;5880;52.342;9.662;2023-03-04T08:34:20;3.17;;;1.50;;
11646;SDS011;5880;52.342;9.662;2023-03-04T08:36:49;2.50;;;1.20;;
11646;SDS011;5880;52.342;9.662;2023-03-04T08:39:15;4.07;;;1.60;;
11646;SDS011;5880;52.342;9.662;2023-03-04T08:41:42;2.77;;;1.37;;
11646;SDS011;5880;52.342;9.662;2023-03-04T08:44:09;3.77;;;1.33;;
11646;SDS011;5880;52.342;9.662;2023-03-04T08:46:35;1.70;;;1.33;;
11646;SDS011;5880;52.342;9.662;2023-03-04T08:49:03;4.47;;;1.50;;
11646;SDS011;5880;52.342;9.662;2023-03-04T08:51:29;2.53;;;1.30;;
11646;SDS011;5880;52.342;9.662;2023-03-04T08:53:55;2.90;;;1.40;;
11646;SDS011;5880;52.342;9.662;2023-03-04T08:56:21;3.33;;;1.40;;
11646;SDS011;5880;52.342;9.662;2023-03-04T08:58:47;3.60;;;1.50;;
11646;SDS011;5880;52.342;9.662;2023-03-04T09:01:14;3.07;;;1.27;;
11646;SDS011;5880;52.342;9.662;2023-03-04T09:03:40;1.80;;;1.13;;
11646;SDS011;5880;52.342;9.662;2023-03-04T09:06:07;3.00;;;1.40;;
11646;SDS011;5880;52.342;9.662;2023-03-04T09:08:35;3.10;;;1.30;;
11646;SDS011;5880;52.342;9.662;2023-03-04T09:11:01;4.13;;;1.40;;
11646;SDS011;5880;52.342;9.662;2023-03-04T09:13:28;1.93;;;1.00;;
11646;SDS011;5880;52.342;9.662;2023-03-04T09:15:55;1.83;;;1.30;;
11646;SDS011;5880;52.342;9.662;2023-03-04T09:18:22;3.87;;;2.20;;
11646;SDS011;5880;52.342;9.662;2023-03-04T09:20:49;2.90;;;1.70;;
11646;SDS011;5880;52.342;9.662;2023-03-04T09:23:16;3.93;;;1.80;;
11646;SDS011;5880;52.342;9.662;2023-03-04T09:25:42;4.73;;;1.50;;
11646;SDS011;5880;52.342;9.662;2023-03-04T09:28:11;5.07;;;1.60;;
11646;SDS011;5880;52.342;9.662;2023-03-04T09:30:38;2.57;;;1.30;;
11646;SDS011;5880;52.342;9.662;2023-03-04T09:33:04;3.97;;;1.73;;
11646;SDS011;5880;52.342;9.662;2023-03-04T09:35:30;1.87;;;1.17;;
11646;SDS011;5880;52.342;9.662;2023-03-04T09:37:57;1.60;;;1.10;;
11646;SDS011;5880;52.342;9.662;2023-03-04T09:40:25;1.20;;;1.10;;
11646;SDS011;5880;52.342;9.662;2023-03-04T09:43:01;1.77;;;1.20;;
11646;SDS011;5880;52.342;9.662;2023-03-04T09:45:50;3.07;;;1.23;;
11646;SDS011;5880;52.342;9.662;2023-03-04T09:48:20;1.73;;;1.13;;
11646;SDS011;5880;52.342;9.662;2023-03-04T09:50:55;2.40;;;1.20;;
11646;SDS011;5880;52.342;9.662;2023-03-04T09:53:48;4.03;;;1.97;;
11646;SDS011;5880;52.342;9.662;2023-03-04T09:56:30;3.03;;;1.97;;
11646;SDS011;5880;52.342;9.662;2023-03-04T09:59:10;3.50;;;1.80;;
11646;SDS011;5880;52.342;9.662;2023-03-04T10:01:54;4.23;;;1.80;;
11646;SDS011;5880;52.342;9.662;2023-03-04T10:04:34;4.63;;;2.43;;
11646;SDS011;5880;52.342;9.662;2023-03-04T10:07:18;6.40;;;1.90;;
11646;SDS011;5880;52.342;9.662;2023-03-04T10:10:02;3.83;;;1.70;;
11646;SDS011;5880;52.342;9.662;2023-03-04T10:12:41;5.50;;;1.77;;
11646;SDS011;5880;52.342;9.662;2023-03-04T10:18:15;7.17;;;1.70;;
11646;SDS011;5880;52.342;9.662;2023-03-04T10:23:38;5.63;;;1.90;;
11646;SDS011;5880;52.342;9.662;2023-03-04T10:26:12;6.10;;;2.17;;
11646;SDS011;5880;52.342;9.662;2023-03-04T10:28:41;5.60;;;1.67;;
11646;SDS011;5880;52.342;9.662;2023-03-04T10:33:47;6.20;;;2.03;;
11646;SDS011;5880;52.342;9.662;2023-03-04T10:38:47;5.23;;;1.37;;
11646;SDS011;5880;52.342;9.662;2023-03-04T10:41:22;6.53;;;1.60;;
11646;SDS011;5880;52.342;9.662;2023-03-04T10:46:41;7.80;;;1.80;;
11646;SDS011;5880;52.342;9.662;2023-03-04T10:49:11;2.93;;;1.40;;
11646;SDS011;5880;52.342;9.662;2023-03-04T10:52:12;4.00;;;1.50;;
11646;SDS011;5880;52.342;9.662;2023-03-04T10:54:49;4.07;;;1.50;;
11646;SDS011;5880;52.342;9.662;2023-03-04T10:57:19;4.60;;;1.73;;
11646;SDS011;5880;52.342;9.662;2023-03-04T10:59:57;4.10;;;1.47;;
11646;SDS011;5880;52.342;9.662;2023-03-04T11:02:36;6.67;;;1.80;;
11646;SDS011;5880;52.342;9.662;2023-03-04T11:07:41;2.57;;;1.20;;
11646;SDS011;5880;52.342;9.662;2023-03-04T11:10:21;2.27;;;1.20;;
11646;SDS011;5880;52.342;9.662;2023-03-04T11:15:57;4.57;;;1.53;;
11646;SDS011;5880;52.342;9.662;2023-03-04T11:18:47;2.73;;;1.60;;
11646;SDS011;5880;52.342;9.662;2023-03-04T11:21:21;5.47;;;1.97;;
11646;SDS011;5880;52.342;9.662;2023-03-04T11:23:52;2.77;;;1.90;;
11646;SDS011;5880;52.342;9.662;2023-03-04T11:29:17;4.20;;;2.30;;
11646;SDS011;5880;52.342;9.662;2023-03-04T11:31:55;4.87;;;2.17;;
11646;SDS011;5880;52.342;9.662;2023-03-04T11:34:36;5.20;;;2.10;;
11646;SDS011;5880;52.342;9.662;2023-03-04T11:37:28;5.90;;;1.73;;
11646;SDS011;5880;52.342;9.662;2023-03-04T11:40:10;4.20;;;1.80;;
11646;SDS011;5880;52.342;9.662;2023-03-04T11:45:23;4.47;;;1.77;;
11646;SDS011;5880;52.342;9.662;2023-03-04T11:48:18;4.57;;;1.93;;
11646;SDS011;5880;52.342;9.662;2023-03-04T11:53:53;5.57;;;1.90;;
11646;SDS011;5880;52.342;9.662;2023-03-04T11:56:51;5.07;;;2.10;;
11646;SDS011;5880;52.342;9.662;2023-03-04T11:59:32;4.10;;;1.83;;
11646;SDS011;5880;52.342;9.662;2023-03-04T12:02:19;4.47;;;2.13;;
11646;SDS011;5880;52.342;9.662;2023-03-04T12:13:57;3.83;;;1.40;;
11646;SDS011;5880;52.342;9.662;2023-03-04T12:17:07;6.13;;;1.80;;
11646;SDS011;5880;52.342;9.662;2023-03-04T12:22:44;4.17;;;1.47;;
11646;SDS011;5880;52.342;9.662;2023-03-04T12:25:36;3.57;;;1.47;;
11646;SDS011;5880;52.342;9.662;2023-03-04T12:28:28;2.83;;;1.60;;
11646;SDS011;5880;52.342;9.662;2023-03-04T12:42:10;4.97;;;1.37;;
11646;SDS011;5880;52.342;9.662;2023-03-04T12:44:58;3.17;;;1.30;;
11646;SDS011;5880;52.342;9.662;2023-03-04T12:48:19;5.33;;;1.50;;
11646;SDS011;5880;52.342;9.662;2023-03-04T12:51:39;5.67;;;1.50;;
11646;SDS011;5880;52.342;9.662;2023-03-04T12:54:29;4.50;;;1.30;;
11646;SDS011;5880;52.342;9.662;2023-03-04T12:57:22;2.07;;;1.23;;
11646;SDS011;5880;52.342;9.662;2023-03-04T13:03:05;3.07;;;1.30;;
11646;SDS011;5880;52.342;9.662;2023-03-04T13:08:39;6.37;;;1.30;;
11646;SDS011;5880;52.342;9.662;2023-03-04T13:16:44;4.50;;;1.10;;
11646;SDS011;5880;52.342;9.662;2023-03-04T13:51:26;4.00;;;1.30;;
11646;SDS011;5880;52.342;9.662;2023-03-04T13:54:12;4.03;;;1.33;;
11646;SDS011;5880;52.342;9.662;2023-03-04T14:02:13;5.13;;;1.20;;
11646;SDS011;5880;52.342;9.662;2023-03-04T14:04:55;6.60;;;1.67;;
11646;SDS011;5880;52.342;9.662;2023-03-04T14:07:31;2.43;;;1.20;;
11646;SDS011;5880;52.342;9.662;2023-03-04T14:12:48;6.13;;;1.50;;
11646;SDS011;5880;52.342;9.662;2023-03-04T14:15:22;5.27;;;1.67;;
11646;SDS011;5880;52.342;9.662;2023-03-04T14:17:56;5.60;;;1.90;;
11646;SDS011;5880;52.342;9.662;2023-03-04T14:20:33;5.57;;;1.60;;
11646;SDS011;5880;52.342;9.662;2023-03-04T14:26:08;4.77;;;1.57;;
11646;SDS011;5880;52.342;9.662;2023-03-04T14:28:43;5.03;;;1.50;;
11646;SDS011;5880;52.342;9.662;2023-03-04T14:31:19;4.47;;;1.40;;
11646;SDS011;5880;52.342;9.662;2023-03-04T14:33:49;5.30;;;1.40;;
11646;SDS011;5880;52.342;9.662;2023-03-04T14:36:23;5.20;;;1.60;;
11646;SDS011;5880;52.342;9.662;2023-03-04T14:38:51;3.93;;;1.30;;
11646;SDS011;5880;52.342;9.662;2023-03-04T14:41:30;5.17;;;1.20;;
11646;SDS011;5880;52.342;9.662;2023-03-04T14:46:51;5.60;;;1.87;;
11646;SDS011;5880;52.342;9.662;2023-03-04T14:49:23;5.50;;;1.43;;
11646;SDS011;5880;52.342;9.662;2023-03-04T14:51:50;4.13;;;1.57;;
11646;SDS011;5880;52.342;9.662;2023-03-04T14:54:31;3.63;;;1.60;;
11646;SDS011;5880;52.342;9.662;2023-03-04T14:57:27;4.03;;;1.53;;
11646;SDS011;5880;52.342;9.662;2023-03-04T15:00:13;4.43;;;2.00;;
11646;SDS011;5880;52.342;9.662;2023-03-04T15:02:49;6.97;;;1.80;;
11646;SDS011;5880;52.342;9.662;2023-03-04T15:05:29;4.73;;;1.90;;
11646;SDS011;5880;52.342;9.662;2023-03-04T15:08:04;5.07;;;2.10;;
11646;SDS011;5880;52.342;9.662;2023-03-04T15:11:20;4.77;;;1.43;;
11646;SDS011;5880;52.342;9.662;2023-03-04T15:13:48;6.37;;;1.57;;
11646;SDS011;5880;52.342;9.662;2023-03-04T15:16:20;4.63;;;1.80;;
11646;SDS011;5880;52.342;9.662;2023-03-04T15:19:31;3.53;;;1.83;;
11646;SDS011;5880;52.342;9.662;2023-03-04T15:22:01;6.37;;;1.57;;
11646;SDS011;5880;52.342;9.662;2023-03-04T15:24:30;5.37;;;1.80;;
11646;SDS011;5880;52.342;9.662;2023-03-04T15:26:55;4.87;;;1.70;;
11646;SDS011;5880;52.342;9.662;2023-03-04T15:29:21;5.80;;;1.70;;
11646;SDS011;5880;52.342;9.662;2023-03-04T15:31:47;4.97;;;1.87;;
11646;SDS011;5880;52.342;9.662;2023-03-04T15:34:14;4.53;;;1.40;;
11646;SDS011;5880;52.342;9.662;2023-03-04T15:36:46;4.43;;;1.47;;
11646;SDS011;5880;52.342;9.662;2023-03-04T15:39:15;6.03;;;1.43;;
11646;SDS011;5880;52.342;9.662;2023-03-04T15:41:45;5.47;;;1.40;;
11646;SDS011;5880;52.342;9.662;2023-03-04T15:44:12;6.27;;;1.57;;
11646;SDS011;5880;52.342;9.662;2023-03-04T15:46:37;4.73;;;1.50;;
11646;SDS011;5880;52.342;9.662;2023-03-04T15:49:03;6.67;;;1.60;;
11646;SDS011;5880;52.342;9.662;2023-03-04T15:51:29;6.47;;;1.97;;
11646;SDS011;5880;52.342;9.662;2023-03-04T15:53:55;2.67;;;1.20;;
11646;SDS011;5880;52.342;9.662;2023-03-04T15:56:24;6.63;;;1.40;;
11646;SDS011;5880;52.342;9.662;2023-03-04T15:58:58;6.93;;;2.13;;
11646;SDS011;5880;52.342;9.662;2023-03-04T16:01:30;8.13;;;1.90;;
11646;SDS011;5880;52.342;9.662;2023-03-04T16:03:56;3.73;;;1.50;;
11646;SDS011;5880;52.342;9.662;2023-03-04T16:06:22;6.03;;;1.40;;
11646;SDS011;5880;52.342;9.662;2023-03-04T16:08:53;4.33;;;1.63;;
11646;SDS011;5880;52.342;9.662;2023-03-04T16:11:20;5.43;;;1.53;;
11646;SDS011;5880;52.342;9.662;2023-03-04T16:13:49;3.93;;;1.40;;
11646;SDS011;5880;52.342;9.662;2023-03-04T16:16:15;5.93;;;1.73;;
11646;SDS011;5880;52.342;9.662;2023-03-04T16:18:41;7.13;;;1.90;;
11646;SDS011;5880;52.342;9.662;2023-03-04T16:21:09;7.17;;;2.27;;
11646;SDS011;5880;52.342;9.662;2023-03-04T16:23:39;7.80;;;1.83;;
11646;SDS011;5880;52.342;9.662;2023-03-04T16:26:10;6.93;;;1.80;;
11646;SDS011;5880;52.342;9.662;2023-03-04T16:28:39;5.10;;;1.77;;
11646;SDS011;5880;52.342;9.662;2023-03-04T16:31:05;4.80;;;1.80;;
11646;SDS011;5880;52.342;9.662;2023-03-04T16:33:31;6.23;;;2.27;;
11646;SDS011;5880;52.342;9.662;2023-03-04T16:35:57;5.90;;;1.77;;
11646;SDS011;5880;52.342;9.662;2023-03-04T16:38:24;7.90;;;1.80;;
11646;SDS011;5880;52.342;9.662;2023-03-04T16:40:54;5.43;;;2.20;;
11646;SDS011;5880;52.342;9.662;2023-03-04T16:43:23;5.90;;;1.73;;
11646;SDS011;5880;52.342;9.662;2023-03-04T16:45:49;5.37;;;1.43;;
11646;SDS011;5880;52.342;9.662;2023-03-04T16:48:15;7.07;;;2.10;;
11646;SDS011;5880;52.342;9.662;2023-03-04T16:50:41;8.13;;;1.60;;
11646;SDS011;5880;52.342;9.662;2023-03-04T16:53:22;5.63;;;1.77;;
11646;SDS011;5880;52.342;9.662;2023-03-04T16:56:05;6.33;;;1.60;;
11646;SDS011;5880;52.342;9.662;2023-03-04T16:58:36;5.50;;;1.63;;
11646;SDS011;5880;52.342;9.662;2023-03-04T17:01:02;5.43;;;1.67;;
11646;SDS011;5880;52.342;9.662;2023-03-04T17:03:28;4.93;;;1.57;;
11646;SDS011;5880;52.342;9.662;2023-03-04T17:05:55;5.63;;;1.73;;
11646;SDS011;5880;52.342;9.662;2023-03-04T17:08:20;6.63;;;1.80;;
11646;SDS011;5880;52.342;9.662;2023-03-04T17:10:46;5.93;;;1.80;;